Tiempo atmosférico en la estación meteorológica de Rascafría, Madrid (1159 m.)



Fecha
DESCASC
Temp. máxima en grados centígrados (hora)
DESCASC
Temp. mínima en grados centígrados (hora)
DESCASC
Temp. media en grados centígrados
DESCASC
Racha de viento máxima en m/sg (hora)
DESCASC
Velocidad máxima media en intervalos de 10 minutos(hora)
DESCASC
Precipitaciones diarias en mm
DESCASC
Precipitaciones de 00:00 a 06:00 en mm
DESCASC
Precipitaciones de 06:00 a 12:00 en mm
DESCASC
Precipitaciones de 12:00 a 18:00 en mm
DESCASC
Precipitaciones de 18:00 a 24:00 en mm
DESCASC
04-03-2021 14.6 (13:50) -0.8 (07:00) 6.9 5.56 (16:20) 2.22 (16:20) 0 0 0 0 0
03-03-2021 12.4 (16:20) 0.2 (08:10) 6.3 2.5 (16:20) 1.11 (15:20) 0 0 0 0 0
02-03-2021 12.1 (16:20) 4.4 (07:30) 8.3 3.33 (16:00) 1.67 (11:50) 0.4 0.4 0 0 0
01-03-2021 5.4 (00:00) 4.2 (07:00) 4.8 6.11 (03:10) 1.94 (03:10) 2.2 0 0 1.2 1
28-02-2021 11.6 (17:20) -2.6 (-00:0) 4.5 8.61 (20:40) 3.33 (14:20) 0 0 0 0 0
27-02-2021 18 (16:10) -1.5 (-00:0) 8.3 5.28 (16:50) 2.5 (16:50) 0 0 0 0 0
26-02-2021 14.2 (14:20) 0 (00:00) 7.1 5 (16:50) 2.22 (16:50) 0 0 0 0 0
25-02-2021 11.1 (15:40) 3.8 (00:00) 7.5 3.89 (10:10) 1.67 (09:40) 0 0 0 0 0
24-02-2021 12.9 (12:40) -0.6 (-00:0) 6.1 8.06 (15:30) 4.44 (16:00) 0 0 0 0 0
23-02-2021 12.6 (15:20) -3.7 (-00:0) 4.5 5.28 (14:30) 2.5 (14:10) 0 0 0 0 0
22-02-2021 7.5 (14:00) -2 (-00:0) 2.8 14.17 (05:00) 3.33 (04:50) 5.6 4.4 1.2 0 0
21-02-2021 10.3 (12:50) 1.6 (00:00) 6 11.39 (13:30) 3.89 (11:00) 8.2 0 0 0.4 7.8
20-02-2021 14.2 (13:40) 6.8 (00:00) 10.5 11.39 (13:20) 4.72 (10:30) 0 0 0 0 0
19-02-2021 14.5 (14:20) -2.2 (-00:0) 6.1 11.94 (14:00) 4.17 (13:30) 0 0 0 0 0
18-02-2021 15.4 (14:50) -0.6 (-00:0) 7.4 11.94 (12:30) 4.17 (13:20) 0 0 0 0 0
17-02-2021 13.7 (14:30) 1.9 (00:00) 7.8 5.83 (14:30) 2.22 (15:20) 0 0 0 0 0
16-02-2021 16.2 (14:20) -1.1 (-00:0) 7.6 9.17 (15:50) 3.89 (15:50) 0 0 0 0 0
15-02-2021 12.3 (16:10) -0.8 (-00:0) 5.8 3.33 (14:50) 1.67 (16:40) 0 0 0 0 0
14-02-2021 14.6 (14:50) -2.7 (-00:0) 6 4.72 (16:20) 2.22 (16:00) 0 0 0 0 0
13-02-2021 11.8 (16:00) -1 (-00:0) 5.4 7.78 (10:20) 3.06 (10:20) 0 0 0 0 0
12-02-2021 8.4 (15:20) 5.1 (00:00) 6.7 15.56 (09:10) 6.39 (08:50) 20 7.6 12 0.4 0
11-02-2021 14.2 (15:10) 0.7 (00:00) 7.4 7.22 (03:30) 2.5 (05:20) 0.8 0.6 0.2 0 0
10-02-2021 9.7 (16:00) 0.2 (00:00) 4.9 16.67 (13:30) 7.22 (13:30) 21.8 14.2 7.6 0 0
09-02-2021 6.1 (12:20) 1.3 (00:00) 3.7 20 (14:10) 5.83 (14:10) 20.2 5.4 0.4 8.6 5.8
08-02-2021 6.8 (00:40) 2 (00:00) 4.4 16.94 (22:30) 7.78 (22:30) 46.2 9.8 6 14.8 15.6
07-02-2021 7.8 (13:00) 1.2 (00:00) 4.5 9.72 (21:30) 3.61 (21:30) 4.6 0 0 0 4.6
06-02-2021 7.7 (14:30) 3.2 (00:00) 5.4 6.94 (04:50) 2.22 (23:00) 5.4 1 2.4 2 0
05-02-2021 14.2 (14:30) 1.1 (00:00) 7.6 5.28 (14:10) 2.78 (14:40) 7.2 0.6 0.2 0 6.4
04-02-2021 11.7 (15:30) 3.6 (00:00) 7.6 6.67 (15:20) 2.78 (15:20) 0.4 0 0 0.4 0

Gráficas

Temp. máximas Temp. mínimas Temp. medias Precipitaciones Rachas de viento máximas Velocidades máximas media en intervalos de 10 minutos

Datos horarios

Fecha y hora oficial Temperatura (ºC) Velocidad del viento (km/h) Dirección del viento Racha (km/h) Dirección de racha Precipitación (mm) Presión (hPa) Tendencia (hPa) Humedad (%)
2021-03-05 23:00:00 3.3 0 Calma 4 Oeste 0 -- -- 84
2021-03-05 22:00:00 3 3 Sudoeste 4 Sudoeste 0 -- -- 83
2021-03-05 21:00:00 3.8 2 Sudoeste 3 Oeste 0 -- -- 78
2021-03-05 20:00:00 5.6 2 Sudoeste 4 Sudoeste 0 -- -- 71
2021-03-05 19:00:00 9.6 3 Sur 12 Este 0 -- -- 55
2021-03-05 18:00:00 11.8 5 Sudeste 19 Sudeste 0 -- -- 46
2021-03-05 17:00:00 12.7 11 Sudeste 21 Sudeste 0 -- -- 39
2021-03-05 16:00:00 13.3 7 Nordeste 18 Nordeste 0 -- -- 45
2021-03-05 15:00:00 13.3 9 Nordeste 19 Este 0 -- -- 49
2021-03-05 14:00:00 12.8 9 Nordeste 22 Nordeste 0 -- -- 52
2021-03-05 13:00:00 12.3 9 Nordeste 24 Nordeste 0 -- -- 55
2021-03-05 12:00:00 11.6 6 Nordeste 16 Este 0 -- -- 62
2021-03-05 11:00:00 8.4 2 Norte 6 Norte 0 -- -- 74
2021-03-05 10:00:00 5.3 0 Calma 2 Sudeste 0 -- -- 90
2021-03-05 09:00:00 1.1 0 Calma 2 Sudoeste 0 -- -- 98
2021-03-05 08:00:00 -0.9 0 Calma 3 Sudoeste 0 -- -- 97
2021-03-05 07:00:00 -0.7 2 Sudoeste -- -- 0 -- -- 97
2021-03-05 06:00:00 -0.7 2 Sudoeste 3 Oeste 0 -- -- 96
2021-03-05 05:00:00 -0.4 2 Sudoeste 4 Sudoeste 0 -- -- 96
2021-03-05 04:00:00 -0.4 0 Calma 3 Sudoeste 0 -- -- 95
2021-03-05 03:00:00 0.3 0 Calma 3 Sur 0 -- -- 96
2021-03-05 02:00:00 0.9 2 Oeste 3 Oeste 0 -- -- 95
2021-03-05 01:00:00 1.1 2 Oeste 4 Sudoeste 0 -- -- 95
2021-03-05 00:00:00 1.5 2 Sudoeste 3 Oeste 0 -- -- 93
2021-03-04 23:00:00 1.7 2 Sudoeste 3 Sudoeste 0 -- -- 91
2021-03-04 22:00:00 2.4 0 Calma 4 Sudoeste 0 -- -- 88
2021-03-04 21:00:00 3.6 0 Calma 4 Oeste 0 -- -- 84
2021-03-04 20:00:00 5.6 2 Sudoeste 4 Sudoeste 0 -- -- 78
2021-03-04 19:00:00 9.8 0 Calma 13 Sudeste 0 -- -- 62
2021-03-04 18:00:00 12.6 6 Sur 15 Sur 0 -- -- 46
2021-03-04 17:00:00 14 5 Sur 20 Sudeste 0 -- -- 45
2021-03-04 16:00:00 13.9 7 Sudeste 16 Sur 0 -- -- 47
2021-03-04 15:00:00 13.2 6 Nordeste 14 Nordeste 0 -- -- 53
2021-03-04 14:00:00 14.1 6 Nordeste 16 Nordeste 0 -- -- 52
2021-03-04 13:00:00 13.4 3 Nordeste 14 Este 0 -- -- 56
2021-03-04 12:00:00 11.5 4 Este 10 Este 0 -- -- 63
2021-03-04 11:00:00 8.4 0 Calma 3 Sudeste 0 -- -- 74
2021-03-04 10:00:00 4.4 0 Calma 3 Sudeste 0 -- -- 96
2021-03-04 09:00:00 0.8 0 Calma 3 Sudoeste 0 -- -- 98
2021-03-04 08:00:00 -0.7 0 Calma 4 Sur 0 -- -- 97
2021-03-04 07:00:00 -0.8 0 Calma 4 Este 0 -- -- 97
2021-03-04 06:00:00 -0.4 0 Calma 4 Oeste 0 -- -- 97
2021-03-04 05:00:00 -0.2 0 Calma 3 Sudoeste 0 -- -- 97
2021-03-04 04:00:00 0 0 Calma 4 Sur 0 -- -- 97
2021-03-04 03:00:00 0.3 2 Sudoeste 4 Sudoeste 0 -- -- 96
2021-03-04 02:00:00 0.7 2 Sudoeste 4 Sudoeste 0 -- -- 96
2021-03-04 01:00:00 1 0 Calma 4 Sudoeste 0 -- -- 96
2021-03-04 00:00:00 1.6 0 Calma 4 Sur 0 -- -- 95
2021-03-03 23:00:00 2.4 0 Calma 4 Sudoeste 0 -- -- 94
2021-03-03 22:00:00 3.3 2 Sudoeste 3 Oeste 0 -- -- 92
2021-03-03 21:00:00 4.7 0 Calma 3 Sudoeste 0 -- -- 90
2021-03-03 20:00:00 6.8 0 Calma 3 Sur 0 -- -- 85
2021-03-03 19:00:00 10.7 0 Calma 4 Nordeste 0 -- -- 72
2021-03-03 18:00:00 12 0 Calma 5 Este 0 -- -- 61
2021-03-03 17:00:00 12.1 2 Este 9 Nordeste 0 -- -- 61
2021-03-03 16:00:00 12.1 2 Nordeste 8 Nordeste 0 -- -- 56
2021-03-03 15:00:00 11.2 2 Este 6 Este 0 -- -- 62
2021-03-03 14:00:00 10 2 Este 6 Nordeste 0 -- -- 62
2021-03-03 13:00:00 8.7 0 Calma 5 Este 0 -- -- 66
2021-03-03 12:00:00 6.5 0 Calma 4 Este 0 -- -- 81
2021-03-03 11:00:00 4.1 0 Calma 2 Sudeste 0 -- -- 93
2021-03-03 10:00:00 1.4 0 Calma 6 Sur 0 -- -- 97
2021-03-03 09:00:00 0.6 3 Sur 6 Sur 0 -- -- 96
2021-03-03 08:00:00 0.3 0 Calma 3 Sudoeste 0 -- -- 95
2021-03-03 07:00:00 1.1 0 Calma 3 Oeste 0 -- -- 94
2021-03-03 06:00:00 2.2 0 Calma 2 Sudoeste 0 -- -- 92
2021-03-03 05:00:00 3.2 0 Calma 4 Sur 0 -- -- 93
2021-03-03 04:00:00 3.3 0 Calma 3 Sudoeste 0 -- -- 92
2021-03-03 03:00:00 3.7 0 Calma 5 Sur 0 -- -- 90
2021-03-03 02:00:00 5 2 Sudoeste 6 Sudoeste 0 -- -- 89
2021-03-03 01:00:00 5.5 0 Calma 3 Sur 0 -- -- 92
2021-03-03 00:00:00 5.7 0 Calma 3 Sudoeste 0 -- -- 90
2021-03-02 23:00:00 5.9 2 Sur 4 Sur 0 -- -- 89
2021-03-02 22:00:00 6.3 0 Calma 3 Sur 0 -- -- 87
2021-03-02 21:00:00 7.2 0 Calma 6 Norte 0 -- -- 81
2021-03-02 20:00:00 7.8 3 Nordeste 8 Norte 0 -- -- 75
2021-03-02 19:00:00 8.7 2 Nordeste 8 Norte 0 -- -- 73
2021-03-02 18:00:00 9.6 4 Nordeste 10 Nordeste 0 -- -- 71
2021-03-02 17:00:00 11.7 0 Calma 10 Nordeste 0 -- -- 60
2021-03-02 16:00:00 11.9 4 Este 12 Este 0 -- -- 57
2021-03-02 15:00:00 9.5 2 Nordeste 8 Oeste 0 -- -- 67
2021-03-02 14:00:00 8 0 Calma 9 Sur 0 -- -- 78
2021-03-02 13:00:00 7.2 3 Sur 9 Sur 0 -- -- 81
2021-03-02 12:00:00 7.1 0 Calma 10 Norte 0 -- -- 82
2021-03-02 11:00:00 7 3 Nordeste 7 Norte 0 -- -- 85
2021-03-02 10:00:00 5.6 0 Calma 3 Este 0 -- -- 93
2021-03-02 09:00:00 4.9 0 Calma 2 Sudoeste 0 -- -- 97
2021-03-02 08:00:00 4.5 0 Calma 2 Noroeste 0 -- -- 97
2021-03-02 07:00:00 4.6 0 Calma 2 Noroeste 0 -- -- 97
2021-03-02 06:00:00 4.6 0 Calma 2 Sudoeste 0 -- -- 96
2021-03-02 05:00:00 4.7 0 Calma 3 Oeste 0 -- -- 96
2021-03-02 04:00:00 4.8 0 Calma 3 Oeste 0 -- -- 96
2021-03-02 03:00:00 4.9 0 Calma 2 Noroeste 0.2 -- -- 96
2021-03-02 02:00:00 4.9 0 Calma 5 Este 0.2 -- -- 95
2021-03-02 01:00:00 5 2 Oeste 8 Noroeste 0 -- -- 94
2021-03-02 00:00:00 5 2 Noroeste 7 Noroeste 0 -- -- 95
2021-03-01 23:00:00 5.2 0 Calma 13 Sur 0.2 -- -- 93
2021-03-01 22:00:00 5.2 0 Calma 13 Sudeste 0 -- -- 94
2021-03-01 21:00:00 5 4 Este 10 Nordeste 0 -- -- 94
2021-03-01 20:00:00 4.7 0 Calma 7 Este 0.6 -- -- 96
2021-03-01 19:00:00 4.7 3 Este 8 Este 0.2 -- -- 95
2021-03-01 18:00:00 4.9 2 Nordeste 6 Este 0.2 -- -- 96
2021-03-01 17:00:00 4.8 3 Nordeste 8 Nordeste 0.2 -- -- 95
2021-03-01 16:00:00 4.7 3 Este 12 Nordeste 0.2 -- -- 94
2021-03-01 15:00:00 4.6 2 Nordeste 8 Este 0.4 -- -- 94
2021-03-01 14:00:00 4.8 5 Este 11 Este 0 -- -- 90
2021-03-01 13:00:00 4.8 3 Este 13 Nordeste 0.2 -- -- 91
2021-03-01 12:00:00 4.7 3 Nordeste 13 Sudeste 0 -- -- 90
2021-03-01 11:00:00 5 4 Sudeste 10 Este 0 -- -- 82
2021-03-01 10:00:00 4.8 4 Este 6 Nordeste 0 -- -- 82
2021-03-01 09:00:00 4.6 2 Nordeste 6 Este 0 -- -- 82
2021-03-01 08:00:00 4.3 2 Este 5 Norte 0 -- -- 83
2021-03-01 07:00:00 4.2 0 Calma 8 Nordeste 0 -- -- 82
2021-03-01 06:00:00 4.4 0 Calma 12 Sudeste 0 -- -- 80
2021-03-01 05:00:00 4.3 5 Sur 14 Sur 0 -- -- 80
2021-03-01 04:00:00 4.6 4 Sudoeste 22 Sudeste 0 -- -- 79
2021-03-01 03:00:00 4.9 4 Sur 12 Sudeste 0 -- -- 78
2021-03-01 02:00:00 5 0 Calma 13 Sudeste 0 -- -- 79
2021-03-01 01:00:00 5.2 5 Sudeste 17 Sudeste 0 -- -- 79
2021-03-01 00:00:00 5.4 9 Sur 24 Sudeste 0 -- -- 80
2021-02-28 23:00:00 5.7 8 Sur 21 Sur 0 -- -- 80
2021-02-28 22:00:00 6.2 10 Sur 27 Sudeste 0 -- -- 76
2021-02-28 21:00:00 6.7 9 Sur 31 Sur 0 -- -- 72
2021-02-28 20:00:00 7.6 4 Sur 17 Sudeste 0 -- -- 68
2021-02-28 19:00:00 8.3 5 Sur 15 Sur 0 -- -- 66
2021-02-28 18:00:00 10.4 3 Sudoeste 23 Oeste 0 -- -- 54
2021-02-28 17:00:00 11.2 9 Sur 24 Sudeste 0 -- -- 46
2021-02-28 16:00:00 11.2 12 Sudeste 24 Sur 0 -- -- 49
2021-02-28 15:00:00 10.3 11 Nordeste 26 Norte 0 -- -- 56
2021-02-28 14:00:00 10.9 10 Nordeste 19 Norte 0 -- -- 55
2021-02-28 13:00:00 9.1 5 Nordeste 17 Este 0 -- -- 56
2021-02-28 12:00:00 8.7 7 Nordeste 14 Este 0 -- -- 59
2021-02-28 11:00:00 6.7 0 Calma 8 Nordeste 0 -- -- 64
2021-02-28 10:00:00 4.3 3 Este 5 Este 0 -- -- 76
2021-02-28 09:00:00 -0.8 0 Calma 2 Sur 0 -- -- 97
2021-02-28 08:00:00 -2.6 0 Calma 3 Oeste 0 -- -- 94
2021-02-28 07:00:00 -2.3 0 Calma 3 Oeste 0 -- -- 95
2021-02-28 06:00:00 -2 0 Calma 3 Sudoeste 0 -- -- 94
2021-02-28 05:00:00 -1.6 2 Sudoeste 4 Sudoeste 0 -- -- 94
2021-02-28 04:00:00 -1.2 0 Calma 3 Sudoeste 0 -- -- 92
2021-02-28 03:00:00 -0.5 0 Calma 3 Oeste 0 -- -- 93
2021-02-28 02:00:00 -0.6 0 Calma 3 Sudoeste 0 -- -- 91
2021-02-28 01:00:00 0.3 0 Calma 3 Oeste 0 -- -- 89
2021-02-28 00:00:00 0.7 0 Calma 5 Sudoeste 0 -- -- 87
2021-02-27 23:00:00 1.5 0 Calma 3 Sudoeste 0 -- -- 83
2021-02-27 22:00:00 2.6 2 Sudoeste 4 Sudoeste 0 -- -- 79
2021-02-27 21:00:00 4.5 2 Sudoeste 4 Sudoeste 0 -- -- 75
2021-02-27 20:00:00 7.2 0 Calma 6 Sur 0 -- -- 67
2021-02-27 19:00:00 11.6 4 Sudoeste 16 Noroeste 0 -- -- 50
2021-02-27 18:00:00 14.8 6 Oeste 17 Oeste 0 -- -- 36
2021-02-27 17:00:00 16.3 9 Noroeste 19 Noroeste 0 -- -- 37
2021-02-27 16:00:00 17.9 4 Nordeste 11 Nordeste 0 -- -- 24
2021-02-27 15:00:00 17.6 2 Norte 14 Nordeste 0 -- -- 20
2021-02-27 14:00:00 17.2 6 Este 15 Este 0 -- -- 22
2021-02-27 13:00:00 16.4 5 Nordeste 12 Nordeste 0 -- -- 30
2021-02-27 12:00:00 14.6 2 Este 6 Este 0 -- -- 35
2021-02-27 11:00:00 10.1 2 Sudeste 4 Sudeste 0 -- -- 61
2021-02-27 10:00:00 3.6 0 Calma 3 Sudoeste 0 -- -- 90
2021-02-27 09:00:00 -0.3 2 Sudoeste 4 Sudoeste 0 -- -- 95
2021-02-27 08:00:00 -1.5 2 Oeste 3 Sudoeste 0 -- -- 94
2021-02-27 07:00:00 -1.4 0 Calma 3 Sudoeste 0 -- -- 94
2021-02-27 06:00:00 -1.1 2 Oeste 5 Sur 0 -- -- 94
2021-02-27 05:00:00 -1.4 2 Oeste 4 Sudoeste 0 -- -- 94
2021-02-27 04:00:00 -1.3 3 Sudoeste 4 Sudoeste 0 -- -- 93
2021-02-27 03:00:00 -0.7 0 Calma 4 Sudoeste 0 -- -- 92
2021-02-27 02:00:00 -0.1 0 Calma 4 Sudoeste 0 -- -- 93
2021-02-27 01:00:00 0.5 2 Sudoeste 3 Sudoeste 0 -- -- 92
2021-02-27 00:00:00 1.5 2 Oeste 3 Sudoeste 0 -- -- 91
2021-02-26 23:00:00 2.4 2 Sudoeste 3 Sudoeste 0 -- -- 89
2021-02-26 22:00:00 3.2 0 Calma 4 Oeste 0 -- -- 88
2021-02-26 21:00:00 3.8 2 Sudoeste 3 Sudoeste 0 -- -- 84
2021-02-26 20:00:00 5.7 0 Calma 4 Sudoeste 0 -- -- 78
2021-02-26 19:00:00 9.3 2 Oeste 8 Nordeste 0 -- -- 70
2021-02-26 18:00:00 12.5 3 Nordeste 13 Nordeste 0 -- -- 53
2021-02-26 17:00:00 14.1 7 Nordeste 18 Norte 0 -- -- 48
2021-02-26 16:00:00 13.6 6 Nordeste 15 Nordeste 0 -- -- 49
2021-02-26 15:00:00 13.8 4 Sudeste 14 Nordeste 0 -- -- 45
2021-02-26 14:00:00 13 3 Este 10 Este 0 -- -- 50
2021-02-26 13:00:00 11.8 4 Este 9 Nordeste 0 -- -- 54
2021-02-26 12:00:00 9.7 3 Nordeste 6 Nordeste 0 -- -- 63
2021-02-26 11:00:00 7.1 0 Calma 4 Este 0 -- -- 82
2021-02-26 10:00:00 4.5 0 Calma 9 Sudeste 0 -- -- 92
2021-02-26 09:00:00 1.7 0 Calma 4 Sudoeste 0 -- -- 98
2021-02-26 08:00:00 0 0 Calma 5 Noroeste 0 -- -- 96
2021-02-26 07:00:00 0.2 0 Calma 5 Oeste 0 -- -- 96
2021-02-26 06:00:00 0.7 3 Sudoeste 5 Oeste 0 -- -- 96
2021-02-26 05:00:00 0.8 2 Sudoeste 5 Oeste 0 -- -- 95
2021-02-26 04:00:00 1.3 2 Sudoeste 4 Sudoeste 0 -- -- 95
2021-02-26 03:00:00 1.6 0 Calma 4 Sur 0 -- -- 95
2021-02-26 02:00:00 1.9 2 Sudoeste 3 Sudoeste 0 -- -- 93
2021-02-26 01:00:00 2.7 2 Oeste 5 Oeste 0 -- -- 91
2021-02-26 00:00:00 3.8 0 Calma 3 Sudoeste 0 -- -- 91
2021-02-25 23:00:00 4.7 0 Calma 4 Sudoeste 0 -- -- 89
2021-02-25 22:00:00 4.3 0 Calma 3 Sudoeste 0 -- -- 89
2021-02-25 21:00:00 5.3 0 Calma 3 Sur 0 -- -- 86
2021-02-25 20:00:00 6.1 0 Calma 3 Noroeste 0 -- -- 84
2021-02-25 19:00:00 8.1 0 Calma 7 Nordeste 0 -- -- 76
2021-02-25 18:00:00 10 0 Calma 6 Norte 0 -- -- 66
2021-02-25 17:00:00 10.6 3 Nordeste 12 Este 0 -- -- 63
2021-02-25 16:00:00 10.8 4 Nordeste 9 Este 0 -- -- 63
2021-02-25 15:00:00 10.6 3 Norte 8 Norte 0 -- -- 62
2021-02-25 14:00:00 9.5 3 Norte 8 Norte 0 -- -- 62
2021-02-25 13:00:00 8 4 Nordeste 9 Nordeste 0 -- -- 69
2021-02-25 12:00:00 7.6 0 Calma 9 Nordeste 0 -- -- 71
2021-02-25 11:00:00 6.7 3 Nordeste 14 Nordeste 0 -- -- 76
2021-02-25 10:00:00 5.6 5 Nordeste 13 Nordeste 0 -- -- 82
2021-02-25 09:00:00 4.5 3 Nordeste 12 Nordeste 0 -- -- 88
2021-02-25 08:00:00 4.1 2 Nordeste 8 Norte 0 -- -- 91
2021-02-25 07:00:00 4.2 3 Este 11 Nordeste 0 -- -- 89
2021-02-25 06:00:00 5.1 2 Este 7 Nordeste 0 -- -- 85
2021-02-25 05:00:00 5.7 3 Nordeste 9 Nordeste 0 -- -- 82
2021-02-25 04:00:00 6.1 4 Norte 8 Norte 0 -- -- 80
2021-02-25 03:00:00 6.4 3 Nordeste 9 Norte 0 -- -- 82
2021-02-25 02:00:00 7 3 Nordeste 8 Nordeste 0 -- -- 77
2021-02-25 01:00:00 7.7 4 Este 13 Sudeste 0 -- -- 72
2021-02-25 00:00:00 7.9 3 Sudeste 15 Sudeste 0 -- -- 73
2021-02-24 23:00:00 8 3 Este 12 Este 0 -- -- 74
2021-02-24 22:00:00 8.2 3 Nordeste 13 Este 0 -- -- 77
2021-02-24 21:00:00 8.2 3 Este 17 Sudeste 0 -- -- 77
2021-02-24 20:00:00 5.6 0 Calma 4 Oeste 0 -- -- 85
2021-02-24 19:00:00 8 0 Calma 15 Sur 0 -- -- 76
2021-02-24 18:00:00 10.1 5 Sur 19 Sur 0 -- -- 65
2021-02-24 17:00:00 10.9 10 Sudeste 28 Este 0 -- -- 62
2021-02-24 16:00:00 11.4 16 Sudeste 29 Sudeste 0 -- -- 58
2021-02-24 15:00:00 12.2 10 Sudeste 29 Sudeste 0 -- -- 54
2021-02-24 14:00:00 11.9 14 Sudeste 27 Este 0 -- -- 55
2021-02-24 13:00:00 12.4 13 Sudeste 29 Sudeste 0 -- -- 50
2021-02-24 12:00:00 11.4 10 Este 24 Sudeste 0 -- -- 55
2021-02-24 11:00:00 10.6 8 Este 20 Este 0 -- -- 61
2021-02-24 10:00:00 8.6 6 Nordeste 13 Norte 0 -- -- 73
2021-02-24 09:00:00 4.1 2 Oeste 5 Oeste 0 -- -- 91
2021-02-24 08:00:00 2.8 0 Calma 9 Norte 0 -- -- 90
2021-02-24 07:00:00 2.5 0 Calma 9 Nordeste 0 -- -- 94
2021-02-24 06:00:00 1.7 0 Calma 7 Sur 0 -- -- 96
2021-02-24 05:00:00 1 2 Noroeste 4 Sur 0 -- -- 97
2021-02-24 04:00:00 0.5 2 Noroeste 5 Norte 0 -- -- 96
2021-02-24 03:00:00 0.1 2 Oeste 5 Sur 0 -- -- 96
2021-02-24 02:00:00 -0.4 0 Calma 4 Oeste 0 -- -- 94
2021-02-24 01:00:00 0.5 0 Calma 6 Sudeste 0 -- -- 94
2021-02-24 00:00:00 0.4 3 Sudoeste 7 Noroeste 0 -- -- 95
2021-02-23 23:00:00 -0.7 3 Oeste 7 Sur 0 -- -- 94
2021-02-23 22:00:00 -0.5 2 Sudoeste 5 Sur 0 -- -- 92
2021-02-23 21:00:00 0.7 2 Sudoeste 6 Sudeste 0 -- -- 90
2021-02-23 20:00:00 1.9 2 Oeste 4 Sudoeste 0 -- -- 86
2021-02-23 19:00:00 4.5 2 Noroeste 5 Noroeste 0 -- -- 79
2021-02-23 18:00:00 8 3 Sudeste 15 Sur 0 -- -- 60
2021-02-23 17:00:00 11 6 Sur 19 Sur 0 -- -- 53
2021-02-23 16:00:00 12 9 Sur 18 Sur 0 -- -- 48
2021-02-23 15:00:00 12.5 5 Sur 19 Sudeste 0 -- -- 43
2021-02-23 14:00:00 11.1 7 Sudeste 17 Nordeste 0 -- -- 50
2021-02-23 13:00:00 10.2 3 Este 10 Nordeste 0 -- -- 58
2021-02-23 12:00:00 7.6 4 Nordeste 9 Este 0 -- -- 63
2021-02-23 11:00:00 5.4 3 Nordeste 6 Nordeste 0 -- -- 68
2021-02-23 10:00:00 2.3 0 Calma 4 Norte 0 -- -- 85
2021-02-23 09:00:00 -2 0 Calma 3 Noroeste 0 -- -- 97
2021-02-23 08:00:00 -3.7 0 Calma 2 Sudoeste 0 -- -- 96
2021-02-23 07:00:00 -3.5 0 Calma 4 Noroeste 0 -- -- 95
2021-02-23 06:00:00 -3.3 0 Calma 3 Sudoeste 0 -- -- 96
2021-02-23 05:00:00 -3.2 0 Calma 3 Sudoeste 0 -- -- 95
2021-02-23 04:00:00 -3.1 0 Calma 2 Sudoeste 0 -- -- 95
2021-02-23 03:00:00 -2.7 2 Oeste 5 Oeste 0 -- -- 96
2021-02-23 02:00:00 -2.5 0 Calma 3 Sudoeste 0 -- -- 95
2021-02-23 01:00:00 -2.3 0 Calma 3 Sudoeste 0 -- -- 95
2021-02-23 00:00:00 -1.9 2 Oeste 4 Oeste 0 -- -- 95
2021-02-22 23:00:00 -1.8 2 Oeste 4 Oeste 0 -- -- 94
2021-02-22 22:00:00 -1.5 2 Oeste 4 Oeste 0 -- -- 93
2021-02-22 21:00:00 -0.8 0 Calma 4 Sudoeste 0 -- -- 91
2021-02-22 20:00:00 1.1 2 Sudoeste 11 Noroeste 0 -- -- 85
2021-02-22 19:00:00 4.4 3 Noroeste 12 Noroeste 0 -- -- 67
2021-02-22 18:00:00 5.9 5 Oeste 20 Oeste 0 -- -- 61
2021-02-22 17:00:00 6.2 2 Sudoeste 16 Oeste 0 -- -- 61
2021-02-22 16:00:00 5.7 4 Oeste 16 Noroeste 0 -- -- 66
2021-02-22 15:00:00 6.6 4 Noroeste 25 Norte 0 -- -- 60
2021-02-22 14:00:00 7.5 6 Noroeste 21 Oeste 0 -- -- 62
2021-02-22 13:00:00 6.1 5 Oeste 22 Sudoeste 0 -- -- 61
2021-02-22 12:00:00 3.9 7 Oeste 22 Norte 0 -- -- 73
2021-02-22 11:00:00 3.5 7 Oeste 28 Sudoeste 0 -- -- 71
2021-02-22 10:00:00 2.9 7 Sur 28 Sur 0.2 -- -- 80
2021-02-22 09:00:00 1.2 6 Sudoeste 23 Sudeste 0.4 -- -- 86
2021-02-22 08:00:00 1.3 4 Sudoeste 21 Sur 0.2 -- -- 89
2021-02-22 07:00:00 1.2 6 Sur 25 Sudeste 0.4 -- -- 89
2021-02-22 06:00:00 1.4 5 Este 34 Noroeste 0.6 -- -- 86
2021-02-22 05:00:00 1.4 11 Oeste 51 Oeste 1 -- -- 85
2021-02-22 04:00:00 1.3 5 Sudoeste 31 Sudoeste 0.6 -- -- 87
2021-02-22 03:00:00 1.2 5 Sudoeste 31 Sudoeste 1 -- -- 88
2021-02-22 02:00:00 1.3 4 Sur 23 Oeste 1 -- -- 89
2021-02-22 01:00:00 1.5 5 Sudoeste 16 Oeste 0.2 -- -- 88
2021-02-22 00:00:00 2 3 Este 17 Sudeste 0.4 -- -- 85
2021-02-21 23:00:00 1.8 3 Sur 11 Sudoeste 0.6 -- -- 89
2021-02-21 22:00:00 2 2 Sudeste 7 Sudeste 1.2 -- -- 91
2021-02-21 21:00:00 2.8 0 Calma 21 Oeste 3 -- -- 89
2021-02-21 20:00:00 4.7 6 Noroeste 16 Noroeste 2.6 -- -- 84
2021-02-21 19:00:00 5.9 0 Calma 10 Nordeste 0 -- -- 90
2021-02-21 18:00:00 6.4 2 Nordeste 12 Sudeste 0.2 -- -- 86
2021-02-21 17:00:00 6.6 5 Sudeste 13 Este 0 -- -- 82
2021-02-21 16:00:00 6.1 3 Nordeste 19 Este 0.2 -- -- 89
2021-02-21 15:00:00 6.3 5 Nordeste 20 Este 0 -- -- 82
2021-02-21 14:00:00 6.6 9 Nordeste 41 Sudeste 0 -- -- 77
2021-02-21 13:00:00 9.7 9 Sudeste 37 Sur 0 -- -- 61
2021-02-21 12:00:00 9.6 10 Sur 31 Este 0 -- -- 58
2021-02-21 11:00:00 6.9 14 Este 29 Nordeste 0 -- -- 71
2021-02-21 10:00:00 5.9 9 Sudeste 23 Nordeste 0 -- -- 73
2021-02-21 09:00:00 5.7 10 Este 26 Sur 0 -- -- 71
2021-02-21 08:00:00 4.7 0 Calma 18 Noroeste 0 -- -- 76
2021-02-21 07:00:00 5.5 8 Noroeste 21 Nordeste 0 -- -- 74
2021-02-21 06:00:00 6.1 9 Nordeste 28 Este 0 -- -- 71
2021-02-21 05:00:00 5.8 4 Noroeste 14 Norte 0 -- -- 79
2021-02-21 04:00:00 5.8 5 Norte 24 Norte 0 -- -- 80
2021-02-21 03:00:00 6.1 8 Nordeste 30 Norte 0 -- -- 80
2021-02-21 02:00:00 6.6 9 Nordeste 26 Norte 0 -- -- 73
2021-02-21 01:00:00 6.9 13 Nordeste 30 Norte 0 -- -- 66
2021-02-21 00:00:00 7.4 9 Nordeste 30 Nordeste 0 -- -- 53
2021-02-20 23:00:00 8.3 5 Este 16 Norte 0 -- -- 41
2021-02-20 22:00:00 7.4 6 Norte 16 Norte 0 -- -- 39
2021-02-20 21:00:00 8.8 4 Sur 21 Nordeste 0 -- -- 34
2021-02-20 20:00:00 9 4 Noroeste 14 Sur 0 -- -- 38
2021-02-20 19:00:00 11 8 Sudeste 25 Sur 0 -- -- 34
2021-02-20 18:00:00 12.1 6 Sur 30 Sur 0 -- -- 34
2021-02-20 17:00:00 14 7 Sur 31 Sudeste 0 -- -- 33
2021-02-20 16:00:00 13.2 12 Sudeste 28 Este 0 -- -- 37
2021-02-20 15:00:00 12.3 3 Sudoeste 33 Sur 0 -- -- 37
2021-02-20 14:00:00 12.6 4 Oeste 41 Sur 0 -- -- 38
2021-02-20 13:00:00 12.3 14 Sur 38 Sudeste 0 -- -- 33
2021-02-20 12:00:00 11.5 10 Sudeste 33 Sudeste 0 -- -- 39
2021-02-20 11:00:00 9.9 10 Sudeste 39 Este 0 -- -- 39
2021-02-20 10:00:00 8.5 11 Este 40 Este 0 -- -- 51
2021-02-20 09:00:00 7.3 9 Este 38 Este 0 -- -- 58
2021-02-20 08:00:00 7.4 6 Este 27 Nordeste 0 -- -- 56
2021-02-20 07:00:00 6.9 7 Nordeste 21 Sudoeste 0 -- -- 58
2021-02-20 06:00:00 7.8 8 Nordeste 32 Sudeste 0 -- -- 54
2021-02-20 05:00:00 9.7 9 Sudeste 35 Este 0 -- -- 46
2021-02-20 04:00:00 9.6 12 Sudeste 37 Sudeste 0 -- -- 43
2021-02-20 03:00:00 9.5 10 Sudeste 36 Sudeste 0 -- -- 38
2021-02-20 02:00:00 9.9 7 Sudeste 33 Sudeste 0 -- -- 35
2021-02-20 01:00:00 10.1 7 Sudeste 36 Sur 0 -- -- 42
2021-02-20 00:00:00 9 8 Sur 24 Este 0 -- -- 51
2021-02-19 23:00:00 9 6 Este 22 Este 0 -- -- 48
2021-02-19 22:00:00 10.4 5 Sudoeste 35 Sur 0 -- -- 38
2021-02-19 21:00:00 6.4 2 Oeste 11 Nordeste 0 -- -- 60
2021-02-19 20:00:00 8.3 5 Nordeste 15 Nordeste 0 -- -- 50
2021-02-19 19:00:00 10 4 Este 15 Oeste 0 -- -- 42
2021-02-19 18:00:00 11 4 Sudoeste 18 Oeste 0 -- -- 41
2021-02-19 17:00:00 13.1 3 Este 31 Oeste 0 -- -- 36
2021-02-19 16:00:00 14.3 7 Sur 35 Sur 0 -- -- 32
2021-02-19 15:00:00 14.3 11 Sudoeste 39 Sur 0 -- -- 33
2021-02-19 14:00:00 14.4 12 Sur 43 Sur 0 -- -- 30
2021-02-19 13:00:00 13.7 15 Sur 35 Sur 0 -- -- 31
2021-02-19 12:00:00 12 5 Este 21 Este 0 -- -- 38
2021-02-19 11:00:00 7.7 4 Este 10 Este 0 -- -- 63
2021-02-19 10:00:00 3.8 3 Sur 7 Oeste 0 -- -- 73
2021-02-19 09:00:00 -1.1 0 Calma 6 Sur 0 -- -- 93
2021-02-19 08:00:00 -2.2 0 Calma 6 Noroeste 0 -- -- 92
2021-02-19 07:00:00 -2.1 2 Sudoeste 6 Sur 0 -- -- 92
2021-02-19 06:00:00 -1.6 0 Calma 6 Sudoeste 0 -- -- 90
2021-02-19 05:00:00 -1.4 0 Calma 6 Sudoeste 0 -- -- 89
2021-02-19 04:00:00 -1 0 Calma 5 Sur 0 -- -- 89
2021-02-19 03:00:00 -0.2 0 Calma 5 Sur 0 -- -- 87
2021-02-19 02:00:00 1.1 0 Calma 8 Nordeste 0 -- -- 80
2021-02-19 01:00:00 1.2 2 Sudeste 8 Sur 0 -- -- 80
2021-02-19 00:00:00 1.2 0 Calma 4 Oeste 0 -- -- 80
2021-02-18 23:00:00 2.1 0 Calma 4 Oeste 0 -- -- 77
2021-02-18 22:00:00 3.5 0 Calma 6 Sudeste 0 -- -- 70
2021-02-18 21:00:00 4.1 0 Calma 12 Sudoeste 0 -- -- 69
2021-02-18 20:00:00 6.3 2 Oeste 13 Sudoeste 0 -- -- 64
2021-02-18 19:00:00 8.4 4 Oeste 12 Sudoeste 0 -- -- 56
2021-02-18 18:00:00 11.5 4 Sudoeste 22 Sur 0 -- -- 47
2021-02-18 17:00:00 13 7 Sur 25 Sudeste 0 -- -- 45
2021-02-18 16:00:00 15 8 Sur 23 Sudoeste 0 -- -- 42
2021-02-18 15:00:00 15.3 7 Sudoeste 34 Oeste 0 -- -- 37
2021-02-18 14:00:00 14.7 11 Sudoeste 41 Sudoeste 0 -- -- 34
2021-02-18 13:00:00 14.4 13 Sudoeste 43 Sudoeste 0 -- -- 34
2021-02-18 12:00:00 12.7 12 Sudoeste 36 Oeste 0 -- -- 37
2021-02-18 11:00:00 10 8 Sudoeste 32 Sudoeste 0 -- -- 45
2021-02-18 10:00:00 2.5 3 Sur 12 Oeste 0 -- -- 92
2021-02-18 09:00:00 0.3 0 Calma 6 Sur 0 -- -- 97
2021-02-18 08:00:00 -0.2 0 Calma 5 Oeste 0 -- -- 97
2021-02-18 07:00:00 -0.2 2 Oeste 5 Oeste 0 -- -- 96
2021-02-18 06:00:00 -0.6 0 Calma 5 Oeste 0 -- -- 96
2021-02-18 05:00:00 -0.2 0 Calma 6 Sur 0 -- -- 97
2021-02-18 04:00:00 -0.1 0 Calma 5 Oeste 0 -- -- 96
2021-02-18 03:00:00 0 0 Calma 6 Oeste 0 -- -- 96
2021-02-18 02:00:00 0.8 0 Calma 5 Oeste 0 -- -- 96
2021-02-18 01:00:00 1.2 0 Calma 9 Sur 0 -- -- 96
2021-02-18 00:00:00 1.9 0 Calma 4 Oeste 0 -- -- 96
2021-02-17 23:00:00 2 2 Sudoeste 5 Sudoeste 0 -- -- 95
2021-02-17 22:00:00 2.6 0 Calma 4 Sur 0 -- -- 92
2021-02-17 21:00:00 3.9 2 Sudoeste 5 Sudoeste 0 -- -- 92
2021-02-17 20:00:00 5.8 0 Calma 4 Oeste 0 -- -- 88
2021-02-17 19:00:00 8.8 0 Calma 6 Nordeste 0 -- -- 80
2021-02-17 18:00:00 11.6 2 Nordeste 10 Nordeste 0 -- -- 70
2021-02-17 17:00:00 13 6 Nordeste 14 Nordeste 0 -- -- 64
2021-02-17 16:00:00 13.4 4 Nordeste 18 Nordeste 0 -- -- 63
2021-02-17 15:00:00 13.5 6 Nordeste 21 Nordeste 0 -- -- 62
2021-02-17 14:00:00 12.7 5 Nordeste 15 Nordeste 0 -- -- 66
2021-02-17 13:00:00 11.3 6 Nordeste 14 Este 0 -- -- 70
2021-02-17 12:00:00 9.3 6 Nordeste 12 Nordeste 0 -- -- 76
2021-02-17 11:00:00 7.3 2 Nordeste 5 Este 0 -- -- 84
2021-02-17 10:00:00 5 0 Calma 5 Oeste 0 -- -- 91
2021-02-17 09:00:00 3.3 0 Calma 5 Sur 0 -- -- 94
2021-02-17 08:00:00 3.2 0 Calma 5 Oeste 0 -- -- 93
2021-02-17 07:00:00 3.8 0 Calma 6 Sur 0 -- -- 92
2021-02-17 06:00:00 3.8 3 Sudoeste 5 Sur 0 -- -- 92
2021-02-17 05:00:00 4.3 0 Calma 6 Oeste 0 -- -- 89
2021-02-17 04:00:00 4.6 0 Calma 5 Sudoeste 0 -- -- 90
2021-02-17 03:00:00 4.8 0 Calma 9 Noroeste 0 -- -- 88
2021-02-17 02:00:00 4.5 0 Calma 6 Sudoeste 0 -- -- 89
2021-02-17 01:00:00 4.4 0 Calma 6 Oeste 0 -- -- 87
2021-02-17 00:00:00 6 3 Norte 10 Oeste 0 -- -- 80
2021-02-16 23:00:00 7.4 4 Oeste 12 Noroeste 0 -- -- 77
2021-02-16 22:00:00 6.9 2 Oeste 9 Oeste 0 -- -- 75
2021-02-16 21:00:00 8.3 5 Noroeste 15 Oeste 0 -- -- 67
2021-02-16 20:00:00 9.8 3 Norte 16 Sudoeste 0 -- -- 59
2021-02-16 19:00:00 9.8 4 Oeste 17 Oeste 0 -- -- 60
2021-02-16 18:00:00 11.3 8 Oeste 23 Oeste 0 -- -- 60
2021-02-16 17:00:00 14.3 9 Oeste 29 Oeste 0 -- -- 51
2021-02-16 16:00:00 15.2 8 Oeste 33 Noroeste 0 -- -- 37
2021-02-16 15:00:00 13.2 6 Nordeste 30 Noroeste 0 -- -- 59
2021-02-16 14:00:00 14.3 9 Sudoeste 30 Oeste 0 -- -- 39
2021-02-16 13:00:00 9.9 8 Nordeste 17 Este 0 -- -- 74
2021-02-16 12:00:00 8.1 6 Nordeste 18 Nordeste 0 -- -- 81
2021-02-16 11:00:00 5.4 0 Calma 10 Nordeste 0 -- -- 87
2021-02-16 10:00:00 3.3 3 Sudeste 5 Sudoeste 0 -- -- 93
2021-02-16 09:00:00 -0.2 0 Calma 6 Sudoeste 0 -- -- 97
2021-02-16 08:00:00 -1.1 0 Calma 4 Sudoeste 0 -- -- 96
2021-02-16 07:00:00 -0.9 0 Calma 3 Sudoeste 0 -- -- 96
2021-02-16 06:00:00 -0.2 0 Calma 2 Sudoeste 0 -- -- 95
2021-02-16 05:00:00 0.6 0 Calma 3 Sudoeste 0 -- -- 95
2021-02-16 04:00:00 1.4 0 Calma 3 Sudoeste 0 -- -- 93
2021-02-16 03:00:00 2.7 0 Calma 4 Sur 0 -- -- 92
2021-02-16 02:00:00 3.9 0 Calma 2 Sudoeste 0 -- -- 92
2021-02-16 01:00:00 4.6 0 Calma 2 Sur 0 -- -- 92
2021-02-16 00:00:00 4.9 0 Calma 3 Oeste 0 -- -- 91
2021-02-15 23:00:00 4.9 0 Calma 3 Sudoeste 0 -- -- 92
2021-02-15 22:00:00 4.6 0 Calma 3 Oeste 0 -- -- 91
2021-02-15 21:00:00 4.3 0 Calma 3 Oeste 0 -- -- 91
2021-02-15 20:00:00 5 2 Sudoeste 3 Oeste 0 -- -- 88
2021-02-15 19:00:00 6.8 0 Calma 9 Nordeste 0 -- -- 81
2021-02-15 18:00:00 10 3 Nordeste 10 Este 0 -- -- 69
2021-02-15 17:00:00 12.2 5 Nordeste 11 Este 0 -- -- 61
2021-02-15 16:00:00 12.1 4 Nordeste 10 Nordeste 0 -- -- 61
2021-02-15 15:00:00 11.5 4 Nordeste 12 Nordeste 0 -- -- 60
2021-02-15 14:00:00 9.6 3 Norte 10 Nordeste 0 -- -- 67
2021-02-15 13:00:00 7.4 2 Sudeste 6 Oeste 0 -- -- 74
2021-02-15 12:00:00 6.1 2 Sudoeste 6 Noroeste 0 -- -- 77
2021-02-15 11:00:00 5 2 Nordeste 8 Norte 0 -- -- 82
2021-02-15 10:00:00 3.9 0 Calma 5 Sudoeste 0 -- -- 93
2021-02-15 09:00:00 3.3 0 Calma 3 Sudoeste 0 -- -- 98
2021-02-15 08:00:00 2.5 0 Calma 2 Sudoeste 0 -- -- 98
2021-02-15 07:00:00 2 0 Calma 2 Oeste 0 -- -- 98
2021-02-15 06:00:00 1.3 0 Calma 2 Sudoeste 0 -- -- 98
2021-02-15 05:00:00 0 0 Calma 2 Oeste 0 -- -- 97
2021-02-15 04:00:00 -0.8 0 Calma 2 Sudoeste 0 -- -- 96
2021-02-15 03:00:00 -0.3 2 Sudoeste 3 Sudoeste 0 -- -- 96
2021-02-15 02:00:00 0.5 0 Calma 3 Sudoeste 0 -- -- 95
2021-02-15 01:00:00 1.2 0 Calma 3 Sudoeste 0 -- -- 94
2021-02-15 00:00:00 2.2 2 Sudoeste 3 Sudoeste 0 -- -- 94
2021-02-14 23:00:00 2.6 0 Calma 3 Sudoeste 0 -- -- 93
2021-02-14 22:00:00 3.3 2 Sudoeste 3 Sudoeste 0 -- -- 92
2021-02-14 21:00:00 4.4 0 Calma 4 Sudoeste 0 -- -- 89
2021-02-14 20:00:00 6.2 0 Calma 7 Norte 0 -- -- 85
2021-02-14 19:00:00 8.3 0 Calma 8 Norte 0 -- -- 77
2021-02-14 18:00:00 10.7 5 Norte 12 Norte 0 -- -- 67
2021-02-14 17:00:00 12.3 4 Nordeste 17 Norte 0 -- -- 62
2021-02-14 16:00:00 13.7 8 Nordeste 15 Este 0 -- -- 57
2021-02-14 15:00:00 14.6 5 Nordeste 13 Nordeste 0 -- -- 50
2021-02-14 14:00:00 13.7 4 Este 11 Este 0 -- -- 49
2021-02-14 13:00:00 12.1 4 Nordeste 9 Nordeste 0 -- -- 50
2021-02-14 12:00:00 9.7 4 Norte 8 Norte 0 -- -- 54
2021-02-14 11:00:00 7.5 2 Nordeste 5 Nordeste 0 -- -- 63
2021-02-14 10:00:00 3.4 0 Calma 2 Sudeste 0 -- -- 89
2021-02-14 09:00:00 -1.9 0 Calma 3 Sudoeste 0 -- -- 97
2021-02-14 08:00:00 -2.7 2 Sudoeste 4 Sudoeste 0 -- -- 96
2021-02-14 07:00:00 -2.5 2 Sudoeste 3 Sudoeste 0 -- -- 95
2021-02-14 06:00:00 -2.3 2 Sudoeste 4 Sur 0 -- -- 95
2021-02-14 05:00:00 -2 2 Sudoeste 4 Sudoeste 0 -- -- 95
2021-02-14 04:00:00 -1.6 3 Sudoeste 5 Oeste 0 -- -- 94
2021-02-14 03:00:00 -1.2 2 Sudoeste 5 Oeste 0 -- -- 94
2021-02-14 02:00:00 -0.5 0 Calma 4 Sudoeste 0 -- -- 93
2021-02-14 01:00:00 0.6 2 Oeste 4 Sudoeste 0 -- -- 92
2021-02-14 00:00:00 1.9 3 Sudoeste 8 Sudoeste 0 -- -- 90
2021-02-13 23:00:00 3.3 0 Calma 8 Sudoeste 0 -- -- 87
2021-02-13 22:00:00 5.8 2 Oeste 13 Oeste 0 -- -- 79
2021-02-13 21:00:00 8.2 3 Noroeste 13 Sudeste 0 -- -- 72
2021-02-13 20:00:00 8 0 Calma 10 Sudeste 0 -- -- 74
2021-02-13 19:00:00 8.6 5 Sur 9 Oeste 0 -- -- 69
2021-02-13 18:00:00 9.5 2 Sudoeste 18 Sudoeste 0 -- -- 64
2021-02-13 17:00:00 11.4 5 Noroeste 26 Oeste 0 -- -- 56
2021-02-13 16:00:00 11.8 8 Oeste 26 Oeste 0 -- -- 53
2021-02-13 15:00:00 11 10 Noroeste 27 Oeste 0 -- -- 48
2021-02-13 14:00:00 10 6 Sudoeste 24 Oeste 0 -- -- 45
2021-02-13 13:00:00 8.6 3 Nordeste 10 Noroeste 0 -- -- 40
2021-02-13 08:00:00 -- -- -- -- -- -- -- -- --
2021-02-13 07:00:00 -- -- -- -- -- -- -- -- --
2021-02-13 06:00:00 -- -- -- -- -- -- -- -- --
2021-02-13 05:00:00 1 0 Calma 4 Sur 0 -- -- 92
2021-02-13 04:00:00 3 3 Oeste 11 Sudeste 0 -- -- 87
2021-02-13 03:00:00 5.9 3 Sur 12 Sudoeste 0 -- -- 74
2021-02-13 02:00:00 6.1 2 Sudoeste 14 Oeste 0 -- -- 77
2021-02-13 01:00:00 6 2 Sur 8 Sudeste 0 -- -- 81
2021-02-13 00:00:00 6.3 2 Sudoeste 17 Oeste 0 -- -- 79
2021-02-12 23:00:00 6.2 4 Sur 18 Sudoeste 0 -- -- 80
2021-02-12 22:00:00 6.5 3 Sur 15 Oeste 0 -- -- 80
2021-02-12 21:00:00 6.6 5 Sudoeste 24 Sudoeste 0 -- -- 79
2021-02-12 20:00:00 7.1 10 Oeste 32 Oeste 0 -- -- 78
2021-02-12 19:00:00 7 5 Oeste 33 Oeste 0 -- -- 78
2021-02-12 18:00:00 7.5 7 Oeste 32 Noroeste 0 -- -- 72
2021-02-12 17:00:00 7.7 8 Noroeste 39 Noroeste 0 -- -- 72
2021-02-12 16:00:00 7.6 14 Noroeste 44 Oeste 0 -- -- 76
2021-02-12 15:00:00 8.2 21 Noroeste 51 Oeste 0 -- -- 71
2021-02-12 14:00:00 7.3 18 Noroeste 46 Noroeste 0.4 -- -- 80
2021-02-12 13:00:00 6.3 11 Noroeste 45 Oeste 0 -- -- 84
2021-02-12 12:00:00 5.5 12 Oeste 35 Oeste 2 -- -- 87
2021-02-12 11:00:00 5.4 11 Oeste 44 Oeste 0.2 -- -- 85
2021-02-12 10:00:00 5.8 16 Oeste 56 Oeste 0 -- -- 79
2021-02-12 09:00:00 5.7 18 Oeste 53 Noroeste 0 -- -- 83
2021-02-12 08:00:00 5.8 18 Oeste 46 Oeste 1.2 -- -- 83
2021-02-12 07:00:00 5.4 18 Oeste 39 Oeste 8.6 -- -- 87
2021-02-12 06:00:00 7.1 13 Oeste 32 Oeste 3.2 -- -- 88
2021-02-12 05:00:00 6.6 8 Sudoeste 37 Oeste 4.4 -- -- 91
2021-02-12 04:00:00 5.1 2 Nordeste 9 Este 0 -- -- 97
2021-02-12 03:00:00 5.6 0 Calma 5 Nordeste 0 -- -- 96
2021-02-12 02:00:00 5.5 0 Calma 3 Este 0 -- -- 93
2021-02-12 01:00:00 5.6 0 Calma 2 Noroeste 0 -- -- 94
2021-02-12 00:00:00 6.2 0 Calma 2 Este 0 -- -- 94
2021-02-11 23:00:00 6.1 0 Calma 3 Oeste 0 -- -- 93
2021-02-11 22:00:00 7.5 0 Calma 6 Norte 0 -- -- 89
2021-02-11 21:00:00 8.4 0 Calma 4 Nordeste 0 -- -- 90
2021-02-11 20:00:00 9 0 Calma 5 Nordeste 0 -- -- 89
2021-02-11 19:00:00 9.5 2 Nordeste 8 Nordeste 0 -- -- 86
2021-02-11 18:00:00 10.3 3 Nordeste 15 Nordeste 0 -- -- 81
2021-02-11 17:00:00 11.5 8 Nordeste 15 Norte 0 -- -- 76
2021-02-11 16:00:00 12.1 6 Nordeste 15 Nordeste 0 -- -- 74
2021-02-11 15:00:00 14 5 Nordeste 15 Sudeste 0 -- -- 64
2021-02-11 14:00:00 12.6 5 Nordeste 15 Oeste 0 -- -- 70
2021-02-11 13:00:00 11.3 5 Nordeste 19 Oeste 0 -- -- 74
2021-02-11 12:00:00 10.5 4 Sudeste 14 Oeste 0 -- -- 76
2021-02-11 11:00:00 8.9 2 Sudoeste 12 Noroeste 0 -- -- 79
2021-02-11 10:00:00 7.9 0 Calma 13 Oeste 0 -- -- 86
2021-02-11 09:00:00 8.1 4 Oeste 16 Oeste 0 -- -- 83
2021-02-11 08:00:00 8.3 5 Oeste 25 Oeste 0 -- -- 81
2021-02-11 07:00:00 8 6 Oeste 21 Noroeste 0.2 -- -- 88
2021-02-11 06:00:00 8.1 8 Oeste 26 Sudoeste 0 -- -- 87
2021-02-11 05:00:00 7.4 3 Sudoeste 23 Oeste 0.2 -- -- 93
2021-02-11 04:00:00 5.9 0 Calma 26 Sudoeste 0.2 -- -- 92
2021-02-11 03:00:00 5 3 Norte 12 Noroeste 0 -- -- 88
2021-02-11 02:00:00 2.9 0 Calma 16 Noroeste 0 -- -- 91
2021-02-11 01:00:00 3 3 Sur 13 Sudeste 0.2 -- -- 87
2021-02-11 00:00:00 0.7 0 Calma 4 Sudoeste 0 -- -- 89
2021-02-10 23:00:00 0.3 0 Calma 6 Sudeste 0 -- -- 84
2021-02-10 22:00:00 1.7 2 Sudoeste 7 Sudoeste 0 -- -- 74
2021-02-10 21:00:00 4.9 4 Sur 12 Sur 0 -- -- 54
2021-02-10 20:00:00 5.9 5 Oeste 21 Noroeste 0 -- -- 46
2021-02-10 19:00:00 6.2 6 Sudeste 16 Sur 0 -- -- 58
2021-02-10 18:00:00 7 4 Sur 17 Sudoeste 0 -- -- 56
2021-02-10 17:00:00 9.3 5 Sur 26 Sur 0 -- -- 53
2021-02-10 16:00:00 9.7 5 Sur 20 Sudoeste 0 -- -- 52
2021-02-10 15:00:00 8.6 7 Sur 40 Noroeste 0 -- -- 56
2021-02-10 14:00:00 7.1 15 Oeste 60 Noroeste 0 -- -- 60
2021-02-10 13:00:00 6.1 21 Noroeste 54 Noroeste 0 -- -- 66
2021-02-10 12:00:00 5.5 22 Oeste 47 Oeste 0.2 -- -- 67
2021-02-10 11:00:00 4.1 17 Oeste 43 Oeste 0.8 -- -- 75
2021-02-10 10:00:00 3.2 14 Noroeste 44 Oeste 0.6 -- -- 82
2021-02-10 09:00:00 2.9 13 Oeste 48 Oeste 2 -- -- 87
2021-02-10 08:00:00 2.8 17 Oeste 44 Oeste 1.8 -- -- 89
2021-02-10 07:00:00 2.7 13 Oeste 57 Oeste 2.2 -- -- 88
2021-02-10 06:00:00 1.2 3 Sudoeste 30 Noroeste 2.2 -- -- 91
2021-02-10 05:00:00 3.2 17 Noroeste 57 Sudoeste 6 -- -- 84
2021-02-10 04:00:00 4.2 14 Oeste 36 Oeste 2.8 -- -- 85
2021-02-10 03:00:00 4.2 8 Oeste 35 Oeste 1.6 -- -- 84
2021-02-10 02:00:00 3.6 5 Oeste 39 Sudoeste 1.2 -- -- 86
2021-02-10 01:00:00 3.9 12 Oeste 42 Sudoeste 0.4 -- -- 81
2021-02-10 00:00:00 4.5 14 Oeste 39 Oeste 0.4 -- -- 77
2021-02-09 23:00:00 4.4 13 Oeste 46 Oeste 0 -- -- 74
2021-02-09 22:00:00 4.2 10 Oeste 43 Sudoeste 0 -- -- 81
2021-02-09 21:00:00 2.9 10 Sudoeste 53 Sudoeste 2.8 -- -- 89
2021-02-09 20:00:00 3 15 Oeste 39 Noroeste 2.4 -- -- 86
2021-02-09 19:00:00 4.9 9 Oeste 33 Oeste 0.2 -- -- 75
2021-02-09 18:00:00 4.2 8 Oeste 27 Oeste 0 -- -- 77
2021-02-09 17:00:00 3.7 10 Oeste 33 Sudoeste 0.4 -- -- 84
2021-02-09 16:00:00 2.7 8 Oeste 28 Oeste 2.4 -- -- 88
2021-02-09 15:00:00 1.4 11 Oeste 72 Oeste 4.4 -- -- 89
2021-02-09 14:00:00 5.5 9 Sudoeste 34 Oeste 1.4 -- -- 86
2021-02-09 13:00:00 6 7 Sudoeste 31 Sur 0 -- -- 83
2021-02-09 12:00:00 5.5 8 Sudoeste 44 Sur 0 -- -- 89
2021-02-09 11:00:00 3 0 Calma 6 Norte 0 -- -- 95
2021-02-09 10:00:00 2.2 3 Noroeste 12 Oeste 0 -- -- 96
2021-02-09 09:00:00 1.7 0 Calma 3 Noroeste 0 -- -- 95
2021-02-09 08:00:00 1.7 0 Calma 9 Este 0 -- -- 94
2021-02-09 07:00:00 2.1 2 Norte 12 Este 0.4 -- -- 94
2021-02-09 06:00:00 2.6 3 Este 36 Oeste 0.4 -- -- 92
2021-02-09 05:00:00 4.2 8 Oeste 32 Oeste 1.2 -- -- 84
2021-02-09 04:00:00 2.7 13 Oeste 34 Oeste 2 -- -- 89
2021-02-09 03:00:00 2 13 Oeste 40 Noroeste 1.8 -- -- 85
2021-02-09 02:00:00 3.9 5 Sudoeste 25 Sur 0 -- -- 80
2021-02-09 01:00:00 3.9 4 Sudoeste 32 Oeste 0 -- -- 82
2021-02-09 00:00:00 3.8 13 Sudoeste 46 Oeste 0 -- -- 85
2021-02-08 23:00:00 3.9 23 Oeste 61 Oeste 0 -- -- 84
2021-02-08 22:00:00 4.1 24 Oeste 52 Oeste 2.4 -- -- 86
2021-02-08 21:00:00 4.1 18 Oeste 42 Oeste 4.4 -- -- 88
2021-02-08 20:00:00 3.7 9 Noroeste 48 Oeste 4.8 -- -- 88
2021-02-08 19:00:00 3.8 15 Oeste 39 Noroeste 4 -- -- 90
2021-02-08 18:00:00 2.2 4 Noroeste 21 Noroeste 4.6 -- -- 89
2021-02-08 17:00:00 2.8 6 Oeste 28 Oeste 5.4 -- -- 88
2021-02-08 16:00:00 3.4 9 Oeste 36 Oeste 2.6 -- -- 86
2021-02-08 15:00:00 4.1 17 Oeste 47 Oeste 1.4 -- -- 82
2021-02-08 14:00:00 4.8 24 Oeste 59 Oeste 0 -- -- 74
2021-02-08 13:00:00 4.6 27 Oeste 52 Oeste 0.8 -- -- 83
2021-02-08 12:00:00 4.8 17 Oeste 46 Noroeste 0.4 -- -- 81
2021-02-08 11:00:00 4 17 Oeste 45 Noroeste 1.8 -- -- 85
2021-02-08 10:00:00 3.2 16 Oeste 50 Oeste 0.4 -- -- 86
2021-02-08 09:00:00 2.8 19 Oeste 48 Noroeste 0.2 -- -- 83
2021-02-08 08:00:00 3.3 21 Oeste 46 Oeste 2.2 -- -- 89
2021-02-08 07:00:00 3.7 17 Oeste 43 Oeste 1 -- -- 85
2021-02-08 06:00:00 2.6 3 Noroeste 11 Nordeste 1.6 -- -- 96
2021-02-08 05:00:00 3 2 Nordeste 10 Norte 2.6 -- -- 96
2021-02-08 04:00:00 3.3 2 Nordeste 9 Este 1.8 -- -- 96
2021-02-08 03:00:00 3.5 3 Este 13 Este 2.4 -- -- 95
2021-02-08 02:00:00 3.8 2 Sudeste 13 Sudeste 0.8 -- -- 94
2021-02-08 01:00:00 5.6 4 Nordeste 28 Oeste 0.6 -- -- 87
2021-02-08 00:00:00 6.1 9 Oeste 30 Oeste 0 -- -- 85
2021-02-07 23:00:00 5.1 7 Oeste 26 Oeste 0.2 -- -- 90
2021-02-07 22:00:00 4.2 9 Oeste 35 Oeste 0.2 -- -- 91
2021-02-07 21:00:00 3.2 5 Sudoeste 31 Oeste 1.2 -- -- 89
2021-02-07 20:00:00 3.6 4 Sudoeste 24 Oeste 1.6 -- -- 86
2021-02-07 19:00:00 3.4 3 Sur 16 Oeste 1.4 -- -- 88
2021-02-07 18:00:00 4.3 2 Oeste 20 Sur 0 -- -- 80
2021-02-07 17:00:00 6.1 3 Sudoeste 27 Oeste 0 -- -- 66
2021-02-07 16:00:00 7.2 10 Sudoeste 25 Oeste 0 -- -- 51
2021-02-07 15:00:00 6.5 4 Sur 15 Oeste 0 -- -- 58
2021-02-07 14:00:00 5.4 6 Noroeste 27 Oeste 0 -- -- 60
2021-02-07 13:00:00 7.8 8 Noroeste 26 Noroeste 0 -- -- 52
2021-02-07 12:00:00 6.1 4 Noroeste 19 Oeste 0 -- -- 55
2021-02-07 11:00:00 5 7 Oeste 30 Oeste 0 -- -- 58
2021-02-07 10:00:00 3.1 6 Noroeste 27 Norte 0 -- -- 62
2021-02-07 09:00:00 2.6 4 Noroeste 23 Oeste 0 -- -- 62
2021-02-07 08:00:00 1.7 5 Oeste 16 Oeste 0 -- -- 67
2021-02-07 07:00:00 1.6 4 Oeste 14 Norte 0 -- -- 70
2021-02-07 06:00:00 2 5 Oeste 25 Oeste 0 -- -- 74
2021-02-07 05:00:00 1.8 5 Oeste 18 Sudoeste 0 -- -- 79
2021-02-07 04:00:00 1.9 2 Noroeste 12 Oeste 0 -- -- 77
2021-02-07 03:00:00 2.7 6 Oeste 17 Noroeste 0 -- -- 79
2021-02-07 02:00:00 3.5 4 Oeste 15 Oeste 0 -- -- 78
2021-02-07 01:00:00 3.3 0 Calma 21 Noroeste 0 -- -- 87
2021-02-07 00:00:00 3.9 7 Noroeste 17 Noroeste 0 -- -- 82
2021-02-06 23:00:00 3.5 8 Oeste 21 Oeste 0 -- -- 90
2021-02-06 22:00:00 3.6 0 Calma 3 Sudoeste 0 -- -- 94
2021-02-06 21:00:00 3.9 0 Calma 7 Noroeste 0 -- -- 91
2021-02-06 20:00:00 4.1 2 Norte 8 Nordeste 0 -- -- 87
2021-02-06 19:00:00 4.4 2 Sudoeste 14 Norte 0 -- -- 85
2021-02-06 18:00:00 5.5 3 Oeste 12 Noroeste 0 -- -- 90
2021-02-06 17:00:00 5.8 0 Calma 6 Este 0.6 -- -- 87
2021-02-06 16:00:00 6.6 2 Este 4 Nordeste 0.2 -- -- 84
2021-02-06 15:00:00 6.7 0 Calma 10 Sudoeste 0.6 -- -- 84
2021-02-06 14:00:00 7.4 0 Calma 5 Norte 0 -- -- 85
2021-02-06 13:00:00 7.4 2 Nordeste 6 Norte 0.6 -- -- 83
2021-02-06 12:00:00 7.2 0 Calma 5 Este 0.2 -- -- 84
2021-02-06 11:00:00 6.3 0 Calma 5 Este 0 -- -- 88
2021-02-06 10:00:00 5.3 0 Calma 3 Noroeste 0.6 -- -- 93
2021-02-06 09:00:00 4.7 0 Calma 4 Oeste 0.6 -- -- 96
2021-02-06 08:00:00 4.7 0 Calma 6 Norte 0.4 -- -- 95
2021-02-06 07:00:00 4.7 0 Calma 5 Norte 0.6 -- -- 95
2021-02-06 06:00:00 4.9 0 Calma 12 Sudeste 0.4 -- -- 94
2021-02-06 05:00:00 5.4 4 Sudoeste 25 Sudeste 0 -- -- 89
2021-02-06 04:00:00 5.2 0 Calma 8 Este 0.2 -- -- 93
2021-02-06 03:00:00 5.4 3 Sur 10 Sur 0 -- -- 94
2021-02-06 02:00:00 5.3 3 Nordeste 13 Nordeste 0.4 -- -- 94
2021-02-06 01:00:00 5.3 0 Calma 6 Sudeste 0 -- -- 95
2021-02-06 00:00:00 5.3 0 Calma 10 Norte 0.4 -- -- 94
2021-02-05 23:00:00 5.9 2 Noroeste 10 Oeste 2.2 -- -- 92
2021-02-05 22:00:00 6.6 3 Noroeste 10 Sur 3.8 -- -- 91
2021-02-05 21:00:00 7.6 2 Sudoeste 13 Sur 0 -- -- 81
2021-02-05 20:00:00 7.2 0 Calma 6 Sudeste 0 -- -- 81
2021-02-05 19:00:00 8.9 2 Oeste 13 Este 0 -- -- 75
2021-02-05 18:00:00 11 4 Este 15 Nordeste 0 -- -- 64
2021-02-05 17:00:00 12.6 6 Nordeste 17 Este 0 -- -- 57
2021-02-05 16:00:00 13.6 6 Nordeste 17 Este 0 -- -- 52
2021-02-05 15:00:00 13.8 8 Este 19 Este 0 -- -- 53
2021-02-05 14:00:00 14.1 9 Este 17 Este 0 -- -- 52
2021-02-05 13:00:00 13 4 Nordeste 13 Nordeste 0 -- -- 60
2021-02-05 12:00:00 11 2 Sudeste 5 Sudeste 0 -- -- 70
2021-02-05 11:00:00 7 0 Calma 4 Sur 0 -- -- 91
2021-02-05 10:00:00 4.2 0 Calma 4 Oeste 0 -- -- 98
2021-02-05 09:00:00 1.7 2 Sudoeste 4 Oeste 0 -- -- 97
2021-02-05 08:00:00 1.3 0 Calma 3 Oeste 0 -- -- 96
2021-02-05 07:00:00 2 2 Sudoeste 6 Sur 0.2 -- -- 95
2021-02-05 06:00:00 3.6 3 Sudoeste 10 Oeste 0 -- -- 94
2021-02-05 05:00:00 4.7 3 Este 9 Sur 0 -- -- 95
2021-02-05 04:00:00 4.9 2 Sudoeste 11 Nordeste 0 -- -- 91
2021-02-05 03:00:00 6.3 5 Noroeste 16 Nordeste 0.2 -- -- 91
2021-02-05 02:00:00 6.7 3 Nordeste 16 Nordeste 0.2 -- -- 89
2021-02-05 01:00:00 5.2 4 Nordeste 17 Nordeste 0.2 -- -- 96
2021-02-05 00:00:00 3.9 3 Norte 9 Norte 0 -- -- 95
2021-02-04 23:00:00 4.2 0 Calma 7 Norte 0 -- -- 90
2021-02-04 22:00:00 5.5 3 Noroeste 20 Sudeste 0 -- -- 84
2021-02-04 21:00:00 7.4 0 Calma 15 Nordeste 0 -- -- 78
2021-02-04 20:00:00 7.7 4 Sur 17 Sur 0 -- -- 77
2021-02-04 19:00:00 7.9 4 Sur 14 Sur 0 -- -- 77
2021-02-04 18:00:00 8.2 4 Sur 18 Sur 0 -- -- 74
2021-02-04 17:00:00 9.4 4 Sur 15 Sur 0 -- -- 66
2021-02-04 16:00:00 10.5 6 Sur 24 Sur 0 -- -- 60
2021-02-04 15:00:00 10.9 8 Sur 23 Sudeste 0 -- -- 59
2021-02-04 14:00:00 11.5 7 Sur 22 Este 0 -- -- 65
2021-02-04 13:00:00 9.2 3 Este 12 Nordeste 0.4 -- -- 84
2021-02-04 12:00:00 8.2 4 Este 13 Nordeste 0 -- -- 89
2021-02-04 11:00:00 7.8 5 Nordeste 18 Nordeste 0 -- -- 90
2021-02-04 10:00:00 7.2 3 Nordeste 10 Norte 0 -- -- 92
2021-02-04 09:00:00 6.1 0 Calma 4 Sudeste 0 -- -- 95
2021-02-04 08:00:00 5.9 0 Calma 5 Sudoeste 0 -- -- 95
2021-02-04 07:00:00 6 0 Calma 4 Sur 0 -- -- 94
2021-02-04 06:00:00 6.2 0 Calma 4 Oeste 0 -- -- 94
2021-02-04 05:00:00 6.1 0 Calma 4 Norte 0 -- -- 95
2021-02-04 04:00:00 6 0 Calma 12 Oeste 0 -- -- 95
2021-02-04 03:00:00 5.7 0 Calma 5 Sur 0 -- -- 93
2021-02-04 02:00:00 5.8 2 Sur 5 Sur 0 -- -- 93
2021-02-04 01:00:00 5.6 0 Calma 4 Sur 0 -- -- 92
2021-02-04 00:00:00 6 0 Calma 3 Oeste 0 -- -- 91